Terminal Aerodrome Forecast
Issued by NWS

Home | Current Version | Previous Version | Text Only | Print | Product List | Glossary On
Versions: 1 2 3 4 5 6 7 8 9 10 11 12 13 14 15 16 17 18 19 20 21
000
FTAK31 PAFA 170526
TAFAFA
TAF
PAFA 170526Z 1706/1812 VRB03KT P6SM FEW025 FEW090 SCT150
     FM171300 22003KT P6SM -SHRA SCT025 BKN040 OVC100
     FM172200 24006KT P6SM -SHRA VCTS BKN050CB BKN100
     FM180400 17004KT P6SM VCSH SCT050 BKN100=

USA.gov is the U.S. government's official web portal to all federal, state and local government web resources and services.